Time;durP1;ratioP1;P1;durP2;ratioP2;P2;SDS_P1;SDS_P2;PMS_P1;PMS_P2;Temp;Humidity;BMP_temperature;BMP_pressure;BME280_temperature;BME280_humidity;BME280_pressure;Samples;Min_cycle;Max_cycle;Signal;HPM_P1;HPM_P2
2023/04/05 00:01:34;;;;;;;12.00;7.10;;;3.80;92.50;;;;;;5063920;28;20060;-70
2023/04/05 00:04:01;;;;;;;14.13;8.05;;;3.70;93.10;;;;;;5048087;28;20521;-70
2023/04/05 00:06:29;;;;;;;15.40;7.90;;;3.70;93.50;;;;;;5064612;28;20066;-70
2023/04/05 00:08:56;;;;;;;12.35;8.02;;;3.70;94.00;;;;;;5063577;28;20041;-70
2023/04/05 00:11:23;;;;;;;14.40;7.70;;;3.70;94.00;;;;;;5044763;28;20115;-70
2023/04/05 00:13:56;;;;;;;13.27;7.90;;;3.70;94.10;;;;;;5063227;28;20426;-70
2023/04/05 00:16:21;;;;;;;16.48;8.70;;;3.60;94.20;;;;;;5062622;28;20116;-70
2023/04/05 00:18:53;;;;;;;12.93;8.00;;;3.60;94.00;;;;;;5071613;28;20124;-70
2023/04/05 00:21:22;;;;;;;13.48;8.07;;;3.60;94.10;;;;;;5060469;28;20033;-70
2023/04/05 00:23:53;;;;;;;14.63;8.27;;;3.50;94.70;;;;;;5070125;28;20043;-69
2023/04/05 00:26:20;;;;;;;12.85;8.27;;;3.50;94.60;;;;;;5061241;28;20039;-70
2023/04/05 00:28:49;;;;;;;14.50;8.23;;;3.40;94.60;;;;;;5066552;28;20087;-70
2023/04/05 00:31:15;;;;;;;12.10;7.55;;;3.40;95.20;;;;;;5053650;28;20120;-70
2023/04/05 00:33:41;;;;;;;14.02;8.35;;;3.30;95.70;;;;;;5067854;28;20051;-69
2023/04/05 00:36:11;;;;;;;16.20;8.73;;;3.30;95.80;;;;;;5067319;28;20048;-70
2023/04/05 00:38:37;;;;;;;11.70;7.80;;;3.30;95.70;;;;;;5063888;28;20076;-69
2023/04/05 00:41:03;;;;;;;10.70;7.70;;;3.20;96.50;;;;;;5058025;28;20076;-70
2023/04/05 00:43:29;;;;;;;13.93;8.55;;;3.20;96.40;;;;;;5046471;28;20083;-70
2023/04/05 00:45:55;;;;;;;13.60;8.40;;;3.20;96.80;;;;;;5047858;28;20473;-70
2023/04/05 00:48:21;;;;;;;13.93;8.68;;;3.30;96.90;;;;;;5059670;28;20087;-70
2023/04/05 00:50:51;;;;;;;17.15;8.70;;;3.10;97.00;;;;;;5062024;28;20143;-70
2023/04/05 00:53:18;;;;;;;13.18;9.00;;;3.10;97.80;;;;;;5070573;28;20045;-70
2023/04/05 00:55:46;;;;;;;13.45;8.60;;;3.10;98.00;;;;;;5070840;28;20064;-70
2023/04/05 00:58:12;;;;;;;13.32;8.30;;;3.10;97.90;;;;;;5061623;28;20056;-70
2023/04/05 01:00:39;;;;;;;14.57;9.13;;;3.10;98.50;;;;;;5020506;28;1074686;-70
2023/04/05 01:03:07;;;;;;;14.07;8.10;;;3.10;98.80;;;;;;5051452;28;20049;-70
2023/04/05 01:05:52;;;;;;;14.18;8.90;;;3.10;98.60;;;;;;5062073;28;20658;-70
2023/04/05 01:08:36;;;;;;;15.23;8.30;;;3.00;98.60;;;;;;5066150;28;20488;-70
2023/04/05 01:11:05;;;;;;;11.98;8.00;;;3.00;99.20;;;;;;5057121;28;20033;-69
2023/04/05 01:13:31;;;;;;;15.00;9.00;;;3.00;99.70;;;;;;5070628;28;20044;-70
2023/04/05 01:15:57;;;;;;;14.80;10.18;;;3.00;99.90;;;;;;5055740;28;20044;-70
2023/04/05 01:18:23;;;;;;;12.70;8.55;;;2.90;99.90;;;;;;5045771;28;20083;-69
2023/04/05 01:21:09;;;;;;;13.88;8.85;;;2.90;99.90;;;;;;5064196;28;20123;-70
2023/04/05 01:23:53;;;;;;;15.02;8.95;;;2.80;99.90;;;;;;5046002;28;20044;-70
2023/04/05 01:26:56;;;;;;;12.35;8.52;;;2.80;99.90;;;;;;5064452;28;20503;-70
2023/04/05 01:29:28;;;;;;;14.88;8.50;;;2.80;99.90;;;;;;5055534;28;20467;-70
2023/04/05 01:32:04;;;;;;;14.90;9.20;;;2.70;99.90;;;;;;5043650;28;20051;-70
2023/04/05 01:34:42;;;;;;;14.25;8.90;;;2.60;99.90;;;;;;5065766;28;20044;-70
2023/04/05 01:37:14;;;;;;;14.88;9.68;;;2.70;99.90;;;;;;5042869;28;20490;-70
2023/04/05 01:39:41;;;;;;;14.65;9.38;;;2.60;99.90;;;;;;5066025;28;20178;-70
2023/04/05 01:42:07;;;;;;;16.87;9.80;;;2.60;99.90;;;;;;5047612;28;20055;-70
2023/04/05 01:44:33;;;;;;;15.80;10.23;;;2.50;99.90;;;;;;5068388;28;20303;-70
2023/04/05 01:46:58;;;;;;;14.63;9.27;;;2.50;99.90;;;;;;5058472;28;20108;-69
2023/04/05 01:49:24;;;;;;;14.57;9.65;;;2.50;99.90;;;;;;5068269;28;20036;-70
2023/04/05 01:51:50;;;;;;;14.20;9.30;;;2.50;99.90;;;;;;5041014;28;20036;-70
2023/04/05 01:54:16;;;;;;;14.18;9.50;;;2.50;99.90;;;;;;5042616;28;20045;-70
2023/04/05 01:56:42;;;;;;;15.10;8.95;;;2.50;99.90;;;;;;5066337;28;20072;-70
2023/04/05 01:59:07;;;;;;;16.55;10.15;;;2.50;99.90;;;;;;5044734;28;20041;-70
2023/04/05 02:01:33;;;;;;;14.95;9.90;;;2.50;99.90;;;;;;5063671;28;20044;-69
2023/04/05 02:03:59;;;;;;;17.10;9.93;;;2.50;99.90;;;;;;5064466;28;20480;-70
2023/04/05 02:06:25;;;;;;;16.48;9.85;;;2.50;99.90;;;;;;5065264;28;20091;-69
2023/04/05 02:08:51;;;;;;;14.30;9.32;;;2.50;99.90;;;;;;5067877;28;20495;-70
2023/04/05 02:11:16;;;;;;;13.43;10.23;;;2.40;99.90;;;;;;5065342;28;20055;-70
2023/04/05 02:13:45;;;;;;;19.67;9.70;;;2.50;99.90;;;;;;5065497;28;20044;-70
2023/04/05 02:16:14;;;;;;;16.77;10.32;;;2.50;99.90;;;;;;5057334;28;20060;-69
2023/04/05 02:18:40;;;;;;;16.02;10.48;;;2.50;99.90;;;;;;5064067;28;20056;-70
2023/04/05 02:21:09;;;;;;;15.07;10.07;;;2.40;99.90;;;;;;5068615;28;20043;-70
2023/04/05 02:23:36;;;;;;;16.38;10.55;;;2.40;99.90;;;;;;5047587;28;20124;-69
2023/04/05 02:26:02;;;;;;;16.73;10.40;;;2.40;99.90;;;;;;5063449;28;20033;-69
2023/04/05 02:28:28;;;;;;;15.95;10.27;;;2.40;99.90;;;;;;5059408;28;20529;-69
2023/04/05 02:30:54;;;;;;;16.35;10.70;;;2.40;99.90;;;;;;5069895;28;20048;-69
2023/04/05 02:33:23;;;;;;;15.85;10.38;;;2.30;99.90;;;;;;5067448;28;20036;-69
2023/04/05 02:35:52;;;;;;;14.88;10.68;;;2.40;99.90;;;;;;5062217;28;20809;-69
2023/04/05 02:38:20;;;;;;;15.95;10.65;;;2.40;99.90;;;;;;5066378;28;20050;-69
2023/04/05 02:40:49;;;;;;;15.18;9.90;;;2.40;99.90;;;;;;5063388;28;20044;-69
2023/04/05 02:43:20;;;;;;;14.35;10.60;;;2.30;99.90;;;;;;5047389;28;20053;-69
2023/04/05 02:45:46;;;;;;;16.48;10.80;;;2.40;99.90;;;;;;5050442;28;20040;-69
2023/04/05 02:48:12;;;;;;;17.50;10.68;;;2.30;99.90;;;;;;5064964;28;20083;-69
2023/04/05 02:50:37;;;;;;;18.50;11.15;;;2.30;99.90;;;;;;5062279;28;20041;-69
2023/04/05 02:53:03;;;;;;;15.32;10.77;;;2.30;99.90;;;;;;5061213;28;20044;-69
2023/04/05 02:55:29;;;;;;;18.08;10.43;;;2.30;99.90;;;;;;5066602;28;20044;-69
2023/04/05 02:58:01;;;;;;;15.50;10.38;;;2.30;99.90;;;;;;5064326;28;20043;-69
2023/04/05 03:00:27;;;;;;;16.20;11.07;;;2.30;99.90;;;;;;5044467;28;20044;-69
2023/04/05 03:02:52;;;;;;;18.45;11.23;;;2.30;99.90;;;;;;5056403;28;20106;-69
2023/04/05 03:05:19;;;;;;;18.48;11.48;;;2.30;99.90;;;;;;5061790;28;20086;-69
2023/04/05 03:07:45;;;;;;;15.60;11.13;;;2.20;99.90;;;;;;5059013;28;20108;-69
2023/04/05 03:10:13;;;;;;;15.73;10.75;;;2.20;99.90;;;;;;5065954;28;20136;-71
2023/04/05 03:12:39;;;;;;;15.10;11.10;;;2.20;99.90;;;;;;5062380;28;20595;-70
2023/04/05 03:15:05;;;;;;;17.70;10.93;;;2.20;99.90;;;;;;5049377;28;20098;-69
2023/04/05 03:17:31;;;;;;;16.83;10.88;;;2.20;99.90;;;;;;5065364;28;20555;-69
2023/04/05 03:19:56;;;;;;;16.92;10.95;;;2.10;99.90;;;;;;5065708;28;20055;-70
2023/04/05 03:22:22;;;;;;;18.05;11.57;;;2.20;99.90;;;;;;5045392;28;20041;-70
2023/04/05 03:24:48;;;;;;;16.77;10.70;;;2.10;99.90;;;;;;5058189;28;20049;-70
2023/04/05 03:27:13;;;;;;;19.23;11.88;;;2.10;99.90;;;;;;5064305;28;20434;-70
2023/04/05 03:29:41;;;;;;;15.32;10.93;;;2.10;99.90;;;;;;5042591;28;20468;-70
2023/04/05 03:32:10;;;;;;;19.52;11.60;;;2.10;99.90;;;;;;5046693;28;20131;-70
2023/04/05 03:34:37;;;;;;;15.00;10.80;;;2.10;99.90;;;;;;5064365;28;20040;-70
2023/04/05 03:37:03;;;;;;;16.02;11.27;;;2.10;99.90;;;;;;5062600;28;20245;-70
2023/04/05 03:39:28;;;;;;;19.40;11.70;;;2.10;99.90;;;;;;5064911;28;20119;-70
2023/04/05 03:41:55;;;;;;;17.67;11.70;;;2.00;99.90;;;;;;5060864;28;20037;-69
2023/04/05 03:44:21;;;;;;;16.93;11.50;;;2.00;99.90;;;;;;5055688;28;20476;-69
2023/04/05 03:46:49;;;;;;;16.98;11.77;;;2.00;99.90;;;;;;5047099;28;20131;-69
2023/04/05 03:49:15;;;;;;;18.05;11.23;;;2.00;99.90;;;;;;5064929;28;20040;-69
2023/04/05 03:51:41;;;;;;;16.52;11.18;;;1.90;99.90;;;;;;5041318;28;20523;-69
2023/04/05 03:54:06;;;;;;;17.92;11.20;;;2.00;99.90;;;;;;5065368;28;20041;-70
2023/04/05 03:56:32;;;;;;;15.77;11.20;;;1.90;99.90;;;;;;5064774;28;20037;-69
2023/04/05 03:58:58;;;;;;;19.88;11.30;;;1.90;99.90;;;;;;5066550;28;20676;-69
2023/04/05 04:01:23;;;;;;;19.00;13.05;;;1.80;99.90;;;;;;5067572;28;20064;-69
2023/04/05 04:03:49;;;;;;;16.45;11.50;;;1.80;99.90;;;;;;5068328;28;20265;-69
2023/04/05 04:06:15;;;;;;;16.58;12.15;;;1.80;99.90;;;;;;5067278;28;20096;-70
2023/04/05 04:08:40;;;;;;;20.75;13.05;;;1.80;99.90;;;;;;5051539;28;20141;-69
2023/04/05 04:11:10;;;;;;;19.20;12.85;;;1.70;99.90;;;;;;5060997;28;20450;-70
2023/04/05 04:13:35;;;;;;;18.88;12.43;;;1.80;99.90;;;;;;5040771;28;20041;-69
2023/04/05 04:16:01;;;;;;;21.45;13.07;;;1.80;99.90;;;;;;5067021;28;21321;-69
2023/04/05 04:18:26;;;;;;;18.50;11.82;;;1.70;99.90;;;;;;5048568;28;20070;-69
2023/04/05 04:20:52;;;;;;;19.75;12.27;;;1.70;99.90;;;;;;5065564;28;20048;-69
2023/04/05 04:23:18;;;;;;;20.17;12.70;;;1.70;99.90;;;;;;5066998;28;20043;-69
2023/04/05 04:25:44;;;;;;;18.92;12.05;;;1.70;99.90;;;;;;5067928;28;20041;-69
2023/04/05 04:28:11;;;;;;;18.83;12.97;;;1.60;99.90;;;;;;5042888;28;20059;-69
2023/04/05 04:30:37;;;;;;;23.03;12.73;;;1.60;99.90;;;;;;5064943;28;20048;-69
2023/04/05 04:33:03;;;;;;;17.95;12.27;;;1.60;99.90;;;;;;5069286;28;20611;-69
2023/04/05 04:35:33;;;;;;;18.00;12.43;;;1.60;99.90;;;;;;5057386;28;20135;-69
2023/04/05 04:38:03;;;;;;;21.05;12.15;;;1.60;99.90;;;;;;5071360;28;20045;-70
2023/04/05 04:40:39;;;;;;;24.45;13.55;;;1.60;99.90;;;;;;5066293;28;20170;-69
2023/04/05 04:43:13;;;;;;;20.73;12.63;;;1.50;99.90;;;;;;5065891;28;20078;-69
2023/04/05 04:45:39;;;;;;;17.13;13.35;;;1.50;99.90;;;;;;5068742;28;20102;-69
2023/04/05 04:48:05;;;;;;;24.35;14.13;;;1.40;99.90;;;;;;5071493;28;20036;-69
2023/04/05 04:50:31;;;;;;;22.55;14.57;;;1.40;99.90;;;;;;5062611;28;20477;-70
2023/04/05 04:53:03;;;;;;;20.85;13.50;;;1.40;99.90;;;;;;5056729;28;20049;-69
2023/04/05 04:55:29;;;;;;;23.00;13.93;;;1.40;99.90;;;;;;5064719;28;20569;-70
2023/04/05 04:57:55;;;;;;;18.45;13.63;;;1.40;99.90;;;;;;5063865;28;20040;-69
2023/04/05 05:00:22;;;;;;;18.55;12.82;;;1.40;99.90;;;;;;5069114;28;20037;-70
2023/04/05 05:02:51;;;;;;;21.20;12.93;;;1.40;99.90;;;;;;5066486;28;20080;-70
2023/04/05 05:05:22;;;;;;;20.60;12.77;;;1.40;99.90;;;;;;5065165;28;20392;-69
2023/04/05 05:07:48;;;;;;;23.42;14.40;;;1.40;99.90;;;;;;5047313;28;20052;-70
2023/04/05 05:10:15;;;;;;;22.17;14.18;;;1.30;99.90;;;;;;5053139;28;20037;-69
2023/04/05 05:12:41;;;;;;;18.88;14.05;;;1.30;99.90;;;;;;5057407;28;20036;-69
2023/04/05 05:15:11;;;;;;;21.67;13.90;;;1.40;99.90;;;;;;5050472;28;20052;-69
2023/04/05 05:17:38;;;;;;;19.75;14.48;;;1.40;99.90;;;;;;5066281;28;20064;-69
2023/04/05 05:20:10;;;;;;;20.17;14.98;;;1.40;99.90;;;;;;5044963;28;20052;-69
2023/04/05 05:22:39;;;;;;;18.38;13.98;;;1.40;99.90;;;;;;5067949;28;20040;-69
2023/04/05 05:25:05;;;;;;;19.80;13.98;;;1.40;99.90;;;;;;5046897;28;20045;-69
2023/04/05 05:27:32;;;;;;;20.37;13.50;;;1.40;99.90;;;;;;5058562;28;20045;-70
2023/04/05 05:29:58;;;;;;;29.50;16.13;;;1.40;99.90;;;;;;5044790;28;20044;-70
2023/04/05 05:32:24;;;;;;;34.28;19.90;;;1.40;99.90;;;;;;5042276;28;20112;-69
2023/04/05 05:34:50;;;;;;;24.48;18.75;;;1.50;99.90;;;;;;5065278;28;20044;-70
2023/04/05 05:37:16;;;;;;;23.33;18.10;;;1.50;99.90;;;;;;5066838;28;20044;-70
2023/04/05 05:39:44;;;;;;;27.67;22.38;;;1.60;99.90;;;;;;5061135;28;20044;-69
2023/04/05 05:42:10;;;;;;;29.88;23.75;;;1.60;99.90;;;;;;5059624;28;20032;-69
2023/04/05 05:44:36;;;;;;;26.05;21.58;;;1.70;99.90;;;;;;5055528;28;20040;-69
2023/04/05 05:47:02;;;;;;;22.70;17.85;;;1.70;99.90;;;;;;5066116;28;20045;-69
2023/04/05 05:49:28;;;;;;;21.70;16.15;;;1.80;99.90;;;;;;5066371;28;20132;-69
2023/04/05 05:51:57;;;;;;;22.52;16.33;;;1.80;99.90;;;;;;5061103;28;20045;-69
2023/04/05 05:54:27;;;;;;;23.15;16.48;;;1.90;99.90;;;;;;5068901;28;20052;-69
2023/04/05 05:56:53;;;;;;;21.23;15.35;;;1.90;99.90;;;;;;5066731;28;20040;-68
2023/04/05 05:59:19;;;;;;;21.88;15.25;;;2.00;99.90;;;;;;5045969;28;20041;-69
2023/04/05 06:01:51;;;;;;;20.65;14.88;;;2.00;99.90;;;;;;5062270;28;20101;-68
2023/04/05 06:04:17;;;;;;;21.40;14.55;;;2.10;99.90;;;;;;5063539;28;20045;-69
2023/04/05 06:06:45;;;;;;;19.73;14.65;;;2.10;99.90;;;;;;5045946;28;20041;-69
2023/04/05 06:09:11;;;;;;;;;;;2.20;99.90;;;;;;5068203;28;20052;-68
2023/04/05 06:11:37;;;;;;;23.23;16.13;;;2.20;99.90;;;;;;5040610;28;20020;-69
2023/04/05 06:14:03;;;;;;;22.77;16.17;;;2.30;99.90;;;;;;5045484;28;20072;-69
2023/04/05 06:16:31;;;;;;;22.70;15.25;;;2.40;99.90;;;;;;5041812;28;20037;-69
2023/04/05 06:18:57;;;;;;;20.10;16.23;;;2.50;99.90;;;;;;5059369;28;20075;-69
2023/04/05 06:21:23;;;;;;;24.35;15.73;;;2.50;99.90;;;;;;5065087;28;20071;-69
2023/04/05 06:23:49;;;;;;;21.40;14.88;;;2.60;99.90;;;;;;5049602;28;20036;-69
2023/04/05 06:26:27;;;;;;;21.38;15.07;;;2.70;99.90;;;;;;5036103;28;20043;-68
2023/04/05 06:28:54;;;;;;;22.23;15.93;;;2.70;99.90;;;;;;5038439;28;20044;-69
2023/04/05 06:31:24;;;;;;;21.30;15.55;;;2.80;99.90;;;;;;5067240;28;20041;-69
2023/04/05 06:33:50;;;;;;;25.13;17.02;;;2.90;99.90;;;;;;5045221;28;20048;-69
2023/04/05 06:36:16;;;;;;;24.33;16.25;;;3.00;99.90;;;;;;5059744;28;20563;-69
2023/04/05 06:38:42;;;;;;;22.02;15.85;;;3.00;99.90;;;;;;5070801;28;20519;-69
2023/04/05 06:41:08;;;;;;;18.38;14.85;;;3.10;99.90;;;;;;5066337;28;20507;-69
2023/04/05 06:43:34;;;;;;;19.23;14.95;;;3.10;99.90;;;;;;5074152;28;20043;-69
2023/04/05 06:46:00;;;;;;;19.63;14.05;;;3.30;99.90;;;;;;5068369;28;20036;-69
2023/04/05 06:48:28;;;;;;;19.35;14.48;;;3.30;99.90;;;;;;5044929;28;20082;-69
2023/04/05 06:51:01;;;;;;;22.08;14.82;;;3.30;99.90;;;;;;5059311;28;20045;-69
2023/04/05 06:53:27;;;;;;;20.50;14.07;;;3.40;99.90;;;;;;5043780;28;20365;-69
2023/04/05 06:55:58;;;;;;;20.88;14.85;;;3.50;99.90;;;;;;5043810;28;20086;-69
2023/04/05 06:58:25;;;;;;;20.88;13.73;;;3.60;99.90;;;;;;5065173;28;20036;-69
2023/04/05 07:00:51;;;;;;;19.17;14.52;;;3.70;99.90;;;;;;5067483;28;20075;-69
2023/04/05 07:03:17;;;;;;;19.70;13.75;;;3.80;99.90;;;;;;5065022;28;20053;-69
2023/04/05 07:05:58;;;;;;;17.73;13.70;;;3.80;99.90;;;;;;5068548;28;20045;-69
2023/04/05 07:08:25;;;;;;;18.83;13.52;;;3.90;99.90;;;;;;5067664;28;20041;-69
2023/04/05 07:10:51;;;;;;;18.35;13.32;;;4.00;99.90;;;;;;5066928;28;20040;-70
2023/04/05 07:13:18;;;;;;;15.85;12.43;;;4.00;99.90;;;;;;5058489;28;20182;-70
2023/04/05 07:15:44;;;;;;;15.20;12.20;;;4.10;99.90;;;;;;5068611;28;20051;-69
2023/04/05 07:18:10;;;;;;;18.75;13.18;;;4.20;99.90;;;;;;5045200;28;20149;-69
2023/04/05 07:20:36;;;;;;;15.85;12.45;;;4.30;99.90;;;;;;5066537;28;20041;-70
2023/04/05 07:23:02;;;;;;;15.38;11.65;;;4.40;99.90;;;;;;5047357;28;20044;-68
2023/04/05 07:25:28;;;;;;;14.07;11.82;;;4.50;99.90;;;;;;5058368;28;20431;-69
2023/04/05 07:27:54;;;;;;;18.02;12.23;;;4.50;99.90;;;;;;5055689;28;20036;-69
2023/04/05 07:30:19;;;;;;;16.30;11.35;;;4.60;99.90;;;;;;5056836;28;20037;-69
2023/04/05 07:32:45;;;;;;;14.43;10.45;;;4.60;99.90;;;;;;5061127;28;20875;-70
2023/04/05 07:35:11;;;;;;;14.57;11.00;;;4.60;99.90;;;;;;5054931;28;20064;-68
2023/04/05 07:37:37;;;;;;;12.75;9.95;;;4.70;99.90;;;;;;5070852;28;20055;-68
2023/04/05 07:40:04;;;;;;;14.00;10.93;;;4.80;99.90;;;;;;5072773;28;20541;-69
2023/04/05 07:42:30;;;;;;;11.88;9.35;;;4.80;99.50;;;;;;5073337;28;20480;-70
2023/04/05 07:44:56;;;;;;;11.95;9.18;;;4.90;98.50;;;;;;5067928;28;20055;-69
2023/04/05 07:47:22;;;;;;;12.02;8.80;;;5.00;97.20;;;;;;5072539;28;20419;-68
2023/04/05 07:49:48;;;;;;;10.88;8.10;;;5.10;96.00;;;;;;5047962;28;20065;-68
2023/04/05 07:52:13;;;;;;;13.40;8.32;;;5.20;95.10;;;;;;5051875;28;20044;-69
2023/04/05 07:54:42;;;;;;;12.80;8.07;;;5.30;94.30;;;;;;5069254;28;20114;-69
2023/04/05 07:57:15;;;;;;;10.45;7.78;;;5.40;93.70;;;;;;5064645;28;20045;-69
2023/04/05 07:59:40;;;;;;;10.88;7.75;;;5.50;92.50;;;;;;5054604;28;20041;-68
2023/04/05 08:02:06;;;;;;;11.88;7.40;;;5.60;92.00;;;;;;5054924;28;20060;-69
2023/04/05 08:04:32;;;;;;;11.73;7.32;;;5.70;91.10;;;;;;5058206;28;20045;-70
2023/04/05 08:06:57;;;;;;;10.50;7.00;;;5.80;90.50;;;;;;5072962;28;20384;-70
2023/04/05 08:09:23;;;;;;;10.77;6.53;;;5.90;89.50;;;;;;5046199;28;20385;-69
2023/04/05 08:11:49;;;;;;;11.63;6.75;;;6.00;86.90;;;;;;5065214;28;20121;-68
2023/04/05 08:14:15;;;;;;;8.82;6.05;;;6.10;85.40;;;;;;5066748;28;20123;-68
2023/04/05 08:16:41;;;;;;;8.63;6.10;;;6.10;84.90;;;;;;5054918;28;20076;-68
2023/04/05 08:19:07;;;;;;;10.38;6.40;;;6.30;84.70;;;;;;5038274;28;20134;-68
2023/04/05 08:21:32;;;;;;;11.50;7.00;;;6.40;83.10;;;;;;5052445;28;20491;-68
2023/04/05 08:23:58;;;;;;;9.75;6.38;;;6.40;82.10;;;;;;5059726;28;20041;-68
2023/04/05 08:26:24;;;;;;;9.68;6.50;;;6.50;81.70;;;;;;5066599;28;20487;-68
2023/04/05 08:28:53;;;;;;;15.38;7.22;;;6.60;81.60;;;;;;5050874;28;20101;-68
2023/04/05 08:31:19;;;;;;;9.95;6.75;;;6.70;81.10;;;;;;5050884;28;20044;-68
2023/04/05 08:33:45;;;;;;;8.73;5.70;;;6.80;80.40;;;;;;5071572;28;20089;-68
2023/04/05 08:36:11;;;;;;;8.35;6.10;;;6.90;79.20;;;;;;5056291;28;20128;-68
2023/04/05 08:38:37;;;;;;;8.15;4.78;;;7.00;78.20;;;;;;5067018;28;20122;-69
2023/04/05 08:41:18;;;;;;;11.38;5.10;;;7.00;77.20;;;;;;5065201;28;20044;-68
2023/04/05 08:44:01;;;;;;;8.50;5.22;;;7.10;75.10;;;;;;5055637;28;20049;-69
2023/04/05 08:46:34;;;;;;;9.25;5.53;;;7.20;74.00;;;;;;5036346;28;20055;-69
2023/04/05 08:49:05;;;;;;;8.55;5.30;;;7.20;73.90;;;;;;5066293;28;20041;-69
2023/04/05 08:51:32;;;;;;;10.68;5.00;;;7.20;72.70;;;;;;5068474;28;20047;-69
2023/04/05 08:53:59;;;;;;;8.07;4.70;;;7.30;72.40;;;;;;5051290;28;20044;-69
2023/04/05 08:56:26;;;;;;;;;;;7.40;71.90;;;;;;5065571;28;20048;-68
2023/04/05 08:59:04;;;;;;;7.03;4.55;;;7.50;71.40;;;;;;5050547;28;20327;-68
2023/04/05 09:01:31;;;;;;;8.07;4.80;;;7.50;71.60;;;;;;5052676;28;20053;-68
2023/04/05 09:04:05;;;;;;;6.18;4.47;;;7.60;71.00;;;;;;5052339;28;20092;-69
2023/04/05 09:06:31;;;;;;;7.13;4.35;;;7.70;70.40;;;;;;5048586;28;20076;-68
2023/04/05 09:08:57;;;;;;;8.25;4.70;;;7.80;70.00;;;;;;5062388;28;20045;-69
2023/04/05 09:11:23;;;;;;;6.72;4.13;;;7.80;69.60;;;;;;5060919;28;20045;-68
2023/04/05 09:13:54;;;;;;;6.07;4.53;;;7.90;68.40;;;;;;5070081;28;20431;-70
2023/04/05 09:16:21;;;;;;;8.27;4.53;;;7.90;67.70;;;;;;5064379;28;20070;-70
2023/04/05 09:18:48;;;;;;;6.97;3.63;;;8.00;68.40;;;;;;5068172;28;20052;-70
2023/04/05 09:21:14;;;;;;;7.72;3.80;;;8.10;67.80;;;;;;5041186;28;20044;-68
2023/04/05 09:23:50;;;;;;;6.03;4.10;;;8.10;66.50;;;;;;5067515;28;20037;-69
2023/04/05 09:26:18;;;;;;;6.97;4.27;;;8.10;65.40;;;;;;5056654;28;20078;-68
2023/04/05 09:28:43;;;;;;;7.30;4.13;;;8.20;66.40;;;;;;5068739;28;20302;-68
2023/04/05 09:31:27;;;;;;;6.60;4.50;;;8.20;65.60;;;;;;5053804;28;20040;-68
2023/04/05 09:33:56;;;;;;;8.85;4.10;;;8.20;65.00;;;;;;5052586;28;20076;-68
2023/04/05 09:36:21;;;;;;;6.57;4.50;;;8.20;64.10;;;;;;5053028;28;20053;-67
2023/04/05 09:38:47;;;;;;;7.32;5.00;;;8.20;64.60;;;;;;5063938;28;20138;-70
2023/04/05 09:41:13;;;;;;;7.63;4.22;;;8.30;64.60;;;;;;5049707;28;20074;-69
2023/04/05 09:43:40;;;;;;;7.45;4.18;;;8.40;64.20;;;;;;5048617;28;20052;-68
2023/04/05 09:46:15;;;;;;;6.90;4.13;;;8.40;63.60;;;;;;5061230;28;20037;-68
2023/04/05 09:48:50;;;;;;;7.97;4.50;;;8.50;63.80;;;;;;5046482;28;20051;-69
2023/04/05 09:51:17;;;;;;;9.30;4.68;;;8.50;63.00;;;;;;5063907;28;20045;-68
2023/04/05 09:53:57;;;;;;;10.77;6.35;;;8.60;63.00;;;;;;5046095;28;20488;-68
2023/04/05 09:56:23;;;;;;;5.72;4.43;;;8.70;63.00;;;;;;5059572;28;20052;-70
2023/04/05 09:58:52;;;;;;;7.78;4.65;;;8.80;63.10;;;;;;5064237;28;20029;-68
2023/04/05 10:01:21;;;;;;;7.07;4.50;;;8.80;62.50;;;;;;5039285;28;20045;-69
2023/04/05 10:03:48;;;;;;;6.75;5.50;;;8.90;61.80;;;;;;5041023;28;20052;-70
2023/04/05 10:06:18;;;;;;;8.32;5.47;;;8.90;61.90;;;;;;5061963;28;20053;-68
2023/04/05 10:08:47;;;;;;;8.65;4.80;;;9.00;61.70;;;;;;5052315;28;20052;-71
2023/04/05 10:11:16;;;;;;;6.25;4.90;;;9.10;61.90;;;;;;5056645;28;20055;-70
2023/04/05 10:13:42;;;;;;;7.43;4.80;;;9.20;61.40;;;;;;5066680;28;20062;-69
2023/04/05 10:16:15;;;;;;;7.85;4.95;;;9.20;60.20;;;;;;5058662;28;20040;-70
2023/04/05 10:18:48;;;;;;;8.60;5.50;;;9.20;60.20;;;;;;5060622;28;20052;-70
2023/04/05 10:21:19;;;;;;;7.30;4.85;;;9.20;60.70;;;;;;5056761;28;20036;-71
2023/04/05 10:23:47;;;;;;;7.18;4.97;;;9.30;60.20;;;;;;5040052;28;20680;-70
2023/04/05 10:26:27;;;;;;;8.02;5.05;;;9.30;58.10;;;;;;5057066;28;20119;-67
2023/04/05 10:29:07;;;;;;;7.82;5.07;;;9.30;58.70;;;;;;5061204;28;20099;-70
2023/04/05 10:32:28;;;;;;;8.35;4.95;;;9.30;59.80;;;;;;5059896;28;20049;-68
2023/04/05 10:35:07;;;;;;;7.10;4.80;;;9.40;56.00;;;;;;5034689;28;20452;-68
2023/04/05 10:38:18;;;;;;;6.75;4.82;;;9.40;56.90;;;;;;5052189;28;20121;-66
2023/04/05 10:40:47;;;;;;;8.95;4.88;;;9.40;56.30;;;;;;4953769;28;20074;-67
2023/04/05 10:43:21;;;;;;;7.45;5.03;;;9.40;57.50;;;;;;5039640;28;20045;-68
2023/04/05 10:45:50;;;;;;;8.40;4.93;;;9.40;57.30;;;;;;5053062;28;20151;-69
2023/04/05 10:48:43;;;;;;;6.93;4.80;;;9.40;56.70;;;;;;5058183;28;20033;-68
2023/04/05 10:51:11;;;;;;;8.27;5.38;;;9.40;57.20;;;;;;5059030;28;20676;-69
2023/04/05 10:53:39;;;;;;;10.18;5.32;;;9.40;57.70;;;;;;5056175;28;20045;-68
2023/04/05 10:56:05;;;;;;;7.88;5.30;;;9.50;58.90;;;;;;5060101;28;20047;-68
2023/04/05 10:58:32;;;;;;;7.57;5.03;;;9.70;58.70;;;;;;5033931;28;20037;-68
2023/04/05 11:00:59;;;;;;;7.43;4.43;;;9.80;58.80;;;;;;5043340;28;20061;-68
2023/04/05 11:04:21;;;;;;;9.70;4.97;;;9.90;58.60;;;;;;5047475;28;20126;-68
2023/04/05 11:06:46;;;;;;;7.32;5.03;;;10.00;57.60;;;;;;5010868;28;20050;-67
2023/04/05 11:09:20;;;;;;;6.47;4.80;;;10.10;58.40;;;;;;5056772;28;20061;-68
2023/04/05 11:11:47;;;;;;;7.82;4.82;;;10.20;57.80;;;;;;5060070;28;20051;-69
2023/04/05 11:14:20;;;;;;;6.10;4.57;;;10.20;56.80;;;;;;5050653;28;20166;-69
2023/04/05 11:16:49;;;;;;;8.82;4.88;;;10.30;56.20;;;;;;5058890;28;20123;-69
2023/04/05 11:19:18;;;;;;;7.47;5.38;;;10.30;56.30;;;;;;5058843;28;20045;-68
2023/04/05 11:21:44;;;;;;;7.30;4.70;;;10.40;56.80;;;;;;5043937;28;20920;-69
2023/04/05 11:24:14;;;;;;;6.65;4.35;;;10.40;57.00;;;;;;5067772;28;20033;-69
2023/04/05 11:26:39;;;;;;;6.63;4.53;;;10.40;56.80;;;;;;5065382;28;20048;-69
2023/04/05 11:29:09;;;;;;;5.90;4.20;;;10.50;56.00;;;;;;5043882;28;20506;-69
2023/04/05 11:31:35;;;;;;;5.47;4.50;;;10.50;55.80;;;;;;5064029;28;20044;-69
2023/04/05 11:34:10;;;;;;;8.85;4.25;;;10.50;55.30;;;;;;5044813;28;20049;-69
2023/04/05 11:36:40;;;;;;;6.18;4.65;;;10.50;53.60;;;;;;5064120;28;20048;-68
2023/04/05 11:39:18;;;;;;;7.40;4.90;;;10.50;52.60;;;;;;5054316;28;20051;-68
2023/04/05 11:41:45;;;;;;;7.85;4.60;;;10.30;52.10;;;;;;5059811;28;20068;-68
2023/04/05 11:44:14;;;;;;;7.93;4.80;;;10.20;52.80;;;;;;5037657;28;20048;-68
2023/04/05 11:46:41;;;;;;;7.85;4.53;;;10.20;53.00;;;;;;5066492;28;20033;-67
2023/04/05 11:49:07;;;;;;;6.45;4.45;;;10.30;54.50;;;;;;5067170;28;20036;-68
2023/04/05 11:51:33;;;;;;;8.15;4.70;;;10.30;53.50;;;;;;5045566;28;20409;-68
2023/04/05 11:53:58;;;;;;;7.00;4.60;;;10.40;53.90;;;;;;5073383;28;20429;-68
2023/04/05 11:56:24;;;;;;;7.03;4.72;;;10.60;54.60;;;;;;5069843;28;20502;-69
2023/04/05 11:58:50;;;;;;;7.28;4.82;;;10.60;54.40;;;;;;5053656;28;20041;-69
2023/04/05 12:01:17;;;;;;;6.90;5.13;;;10.80;54.90;;;;;;5057879;28;20056;-72
2023/04/05 12:03:42;;;;;;;7.50;4.75;;;10.90;54.80;;;;;;5040797;28;20182;-69
2023/04/05 12:06:08;;;;;;;7.43;4.80;;;10.90;54.30;;;;;;5067595;28;20131;-68
2023/04/05 12:08:42;;;;;;;7.35;5.10;;;11.00;55.50;;;;;;5052286;28;20040;-68
2023/04/05 12:11:12;;;;;;;7.78;5.47;;;10.90;51.80;;;;;;5055584;28;20059;-68
2023/04/05 12:13:38;;;;;;;6.50;4.47;;;10.90;51.40;;;;;;5065007;28;20503;-67
2023/04/05 12:16:05;;;;;;;9.13;4.97;;;10.90;53.00;;;;;;5065014;28;20053;-67
2023/04/05 12:18:33;;;;;;;10.38;4.90;;;11.00;53.60;;;;;;5036800;28;20053;-70
2023/04/05 12:21:01;;;;;;;8.05;4.95;;;11.10;53.60;;;;;;5061485;28;20047;-70
2023/04/05 12:23:26;;;;;;;7.55;4.65;;;11.20;53.80;;;;;;5037350;28;20048;-70
2023/04/05 12:25:54;;;;;;;6.38;4.78;;;11.20;53.00;;;;;;5033834;28;20045;-70
2023/04/05 12:28:20;;;;;;;7.78;4.57;;;11.30;53.50;;;;;;5045828;28;20045;-70
2023/04/05 12:30:52;;;;;;;5.95;4.05;;;11.40;53.00;;;;;;5049270;28;20055;-70
2023/04/05 12:33:32;;;;;;;6.43;4.60;;;11.40;51.40;;;;;;5054561;28;20114;-70
2023/04/05 12:36:03;;;;;;;7.82;5.00;;;11.40;50.80;;;;;;5053667;28;20060;-70
2023/04/05 12:38:29;;;;;;;7.82;4.70;;;11.40;51.70;;;;;;5061546;28;20135;-70
2023/04/05 12:41:04;;;;;;;7.35;4.60;;;11.40;51.30;;;;;;5048258;28;20053;-70
2023/04/05 12:43:40;;;;;;;7.03;4.32;;;11.30;50.80;;;;;;5063482;28;20049;-70
2023/04/05 12:46:11;;;;;;;6.80;4.67;;;11.30;51.70;;;;;;5060880;28;20158;-69
2023/04/05 12:48:37;;;;;;;6.43;4.22;;;11.30;51.40;;;;;;5064147;28;20802;-69
2023/04/05 12:51:04;;;;;;;7.00;4.72;;;11.30;51.50;;;;;;5043168;28;20072;-69
2023/04/05 12:53:30;;;;;;;8.20;5.45;;;11.40;51.80;;;;;;5067472;28;20178;-71